Time;durP1;ratioP1;P1;durP2;ratioP2;P2;SDS_P1;SDS_P2;PMS_P1;PMS_P2;Temp;Humidity;BMP_temperature;BMP_pressure;BME280_temperature;BME280_humidity;BME280_pressure;Samples;Min_cycle;Max_cycle;Signal;HPM_P1;HPM_P2
2022/01/24 00:01:40;;;;;;;15.15;10.32;;;3.60;99.90;;;;;;5077313;28;20228;-71
2022/01/24 00:04:08;;;;;;;14.13;10.60;;;3.60;99.90;;;;;;5075794;28;20200;-73
2022/01/24 00:06:35;;;;;;;13.63;8.90;;;3.60;99.90;;;;;;5076936;28;20230;-73
2022/01/24 00:09:04;;;;;;;16.48;10.07;;;3.50;99.90;;;;;;5076754;28;20196;-71
2022/01/24 00:11:45;;;;;;;13.48;9.85;;;3.50;99.90;;;;;;5077021;28;20203;-73
2022/01/24 00:17:05;;;;;;;14.07;10.48;;;3.40;99.90;;;;;;5077580;28;20272;-71
2022/01/24 00:27:48;;;;;;;13.70;9.40;;;3.00;99.90;;;;;;5076536;28;20188;-71
2022/01/24 00:30:15;;;;;;;13.18;9.93;;;3.00;99.90;;;;;;5076722;28;20203;-71
2022/01/24 00:32:42;;;;;;;11.43;8.75;;;3.00;99.90;;;;;;5076549;28;20262;-71
2022/01/24 00:35:09;;;;;;;13.30;8.93;;;3.00;99.90;;;;;;5075706;28;20196;-71
2022/01/24 00:37:36;;;;;;;20.02;8.50;;;3.10;99.90;;;;;;5075790;28;20624;-71
2022/01/24 00:40:03;;;;;;;12.57;8.02;;;3.20;99.90;;;;;;5075834;28;20204;-71
2022/01/24 00:42:46;;;;;;;11.13;7.55;;;3.20;99.90;;;;;;5076288;28;20220;-71
2022/01/24 00:45:25;;;;;;;10.85;7.97;;;3.20;99.90;;;;;;5076957;28;20291;-71
2022/01/24 00:53:50;;;;;;;7.65;6.72;;;3.00;99.90;;;;;;5076500;28;20231;-71
2022/01/24 00:56:17;;;;;;;10.85;6.57;;;2.90;99.90;;;;;;5076425;28;20532;-71
2022/01/24 00:58:44;;;;;;;8.95;7.20;;;2.80;99.90;;;;;;5075623;28;20200;-71
2022/01/24 01:01:10;;;;;;;9.35;6.50;;;2.80;99.90;;;;;;5073496;28;20224;-71
2022/01/24 01:03:36;;;;;;;9.15;7.18;;;2.70;99.90;;;;;;5074926;28;20242;-71
2022/01/24 01:06:06;;;;;;;8.40;6.57;;;2.70;99.90;;;;;;5074389;28;20227;-72
2022/01/24 01:19:35;;;;;;;9.35;6.70;;;2.50;99.90;;;;;;5076272;28;20204;-70
2022/01/24 01:22:02;;;;;;;7.70;6.65;;;2.50;99.90;;;;;;5076140;28;20748;-71
2022/01/24 01:24:32;;;;;;;10.32;6.72;;;2.40;99.90;;;;;;5076629;28;20200;-70
2022/01/24 01:27:11;;;;;;;7.45;6.22;;;2.40;99.90;;;;;;5076162;28;20188;-70
2022/01/24 01:30:16;;;;;;;8.50;6.68;;;2.40;99.90;;;;;;5076507;28;20259;-71
2022/01/24 01:32:55;;;;;;;9.68;6.70;;;2.50;99.90;;;;;;5075138;28;20208;-71
2022/01/24 01:57:21;;;;;;;9.05;5.88;;;2.50;99.90;;;;;;5074287;28;20663;-72
2022/01/24 01:59:48;;;;;;;6.43;5.82;;;2.50;99.90;;;;;;5074043;28;20208;-72
2022/01/24 02:02:15;;;;;;;6.10;5.50;;;2.50;99.90;;;;;;5073863;28;20614;-72
2022/01/24 02:04:42;;;;;;;6.53;5.85;;;2.50;99.90;;;;;;5073758;28;20207;-72
2022/01/24 02:07:13;;;;;;;6.72;6.00;;;2.40;99.90;;;;;;5072666;28;20220;-71
2022/01/24 02:09:42;;;;;;;5.85;5.38;;;2.30;99.90;;;;;;5072912;28;20204;-72
2022/01/24 02:12:10;;;;;;;8.30;5.40;;;2.30;99.90;;;;;;5073778;28;20614;-72
2022/01/24 02:14:42;;;;;;;6.10;4.78;;;2.30;99.90;;;;;;5073579;28;20200;-74
2022/01/24 02:17:15;;;;;;;6.75;5.32;;;2.30;99.90;;;;;;5074788;28;20188;-72
2022/01/24 02:25:01;;;;;;;7.20;5.55;;;2.30;99.90;;;;;;5074388;28;20698;-72
2022/01/24 02:27:40;;;;;;;6.35;5.35;;;2.20;99.90;;;;;;5074642;28;20544;-72
2022/01/24 02:30:15;;;;;;;7.88;5.72;;;2.20;99.90;;;;;;5074822;28;20563;-72
2022/01/24 02:32:42;;;;;;;7.80;5.60;;;2.20;99.90;;;;;;5073763;28;20215;-73
2022/01/24 02:35:09;;;;;;;5.90;5.40;;;2.10;99.90;;;;;;5074075;28;20208;-72
2022/01/24 02:37:36;;;;;;;7.13;6.13;;;2.20;99.90;;;;;;5074118;28;20606;-72
2022/01/24 02:40:16;;;;;;;6.00;5.40;;;2.10;99.90;;;;;;5075031;28;20212;-72
2022/01/24 02:46:06;;;;;;;6.32;5.70;;;2.10;99.90;;;;;;5074366;28;20265;-72
2022/01/24 02:46:07;;;;;;;5.90;5.32;;;2.10;99.90;;;;;;5073950;28;20249;-73
2022/01/24 02:48:33;;;;;;;5.78;5.13;;;2.10;99.90;;;;;;5072548;28;20196;-72
2022/01/24 02:53:30;;;;;;;6.05;5.45;;;2.00;99.90;;;;;;5075882;28;20238;-73
2022/01/24 02:55:57;;;;;;;7.45;5.53;;;2.00;99.90;;;;;;5074723;28;20211;-72
2022/01/24 02:58:23;;;;;;;5.57;4.85;;;2.00;99.90;;;;;;5074616;28;20215;-72
2022/01/24 03:00:51;;;;;;;6.53;5.38;;;1.90;99.90;;;;;;5075383;28;20214;-77
2022/01/24 03:03:19;;;;;;;5.30;4.80;;;1.80;99.90;;;;;;5074379;28;20203;-72
2022/01/24 03:05:46;;;;;;;5.15;4.65;;;1.80;99.90;;;;;;5076787;28;20252;-72
2022/01/24 03:08:14;;;;;;;5.30;4.80;;;1.70;99.90;;;;;;5076854;28;20204;-72
2022/01/24 03:10:45;;;;;;;5.65;5.07;;;1.70;99.90;;;;;;5078477;28;20261;-72
2022/01/24 03:15:47;;;;;;;7.05;6.25;;;1.60;99.90;;;;;;5078203;28;20663;-72
2022/01/24 03:18:14;;;;;;;6.03;5.53;;;1.60;99.90;;;;;;5078288;28;20686;-72
2022/01/24 03:20:41;;;;;;;6.82;5.85;;;1.60;99.90;;;;;;5078023;28;20200;-72
2022/01/24 03:23:08;;;;;;;5.90;5.20;;;1.60;99.90;;;;;;5078429;28;20222;-73
2022/01/24 03:25:34;;;;;;;5.90;5.35;;;1.60;99.90;;;;;;5077218;28;20196;-72
2022/01/24 03:28:03;;;;;;;6.25;5.40;;;1.60;99.90;;;;;;5076621;28;20200;-73
2022/01/24 03:30:31;;;;;;;6.03;5.45;;;1.60;99.90;;;;;;5076588;28;20199;-72
2022/01/24 03:32:58;;;;;;;6.70;5.82;;;1.60;99.90;;;;;;5076708;28;20210;-72
2022/01/24 03:35:25;;;;;;;8.30;5.40;;;1.50;99.90;;;;;;5076504;28;20203;-72
2022/01/24 03:37:52;;;;;;;5.57;5.07;;;1.50;99.90;;;;;;5076492;28;20638;-72
2022/01/24 03:40:18;;;;;;;6.10;5.40;;;1.40;99.90;;;;;;5076382;28;20729;-72
2022/01/24 03:42:45;;;;;;;6.25;5.15;;;1.40;99.90;;;;;;5076584;28;20223;-72
2022/01/24 03:45:12;;;;;;;5.57;5.07;;;1.40;99.90;;;;;;5078724;28;20204;-71
2022/01/24 03:48:03;;;;;;;6.40;5.80;;;1.40;99.90;;;;;;5077543;28;20528;-72
2022/01/24 03:50:29;;;;;;;7.47;5.60;;;1.30;99.90;;;;;;5077394;28;20211;-71
2022/01/24 03:52:56;;;;;;;6.75;5.22;;;1.30;99.90;;;;;;5076732;28;20234;-71
2022/01/24 03:55:22;;;;;;;6.35;5.57;;;1.30;99.90;;;;;;5076935;28;20679;-71
2022/01/24 03:57:48;;;;;;;5.68;5.18;;;1.30;99.90;;;;;;5078138;28;20211;-71
2022/01/24 04:00:15;;;;;;;8.15;5.50;;;1.30;99.90;;;;;;5077038;28;20200;-72
2022/01/24 04:02:43;;;;;;;5.57;5.00;;;1.20;99.90;;;;;;5077611;28;20435;-72
2022/01/24 04:05:10;;;;;;;6.20;5.60;;;1.20;99.90;;;;;;5075734;28;20213;-72
2022/01/24 04:07:36;;;;;;;6.40;5.10;;;1.30;99.90;;;;;;5075883;28;20230;-72
2022/01/24 04:10:07;;;;;;;6.63;5.43;;;1.30;99.90;;;;;;5075676;28;20208;-71
2022/01/24 04:12:39;;;;;;;5.70;5.00;;;1.30;99.90;;;;;;5074147;28;20203;-71
2022/01/24 04:18:09;;;;;;;13.25;7.07;;;1.20;99.90;;;;;;5074964;28;20188;-71
2022/01/24 04:23:21;;;;;;;12.38;5.20;;;1.20;99.90;;;;;;5076070;28;20192;-71
2022/01/24 04:25:48;;;;;;;6.57;5.88;;;1.20;99.90;;;;;;5075847;28;20208;-71
2022/01/24 04:28:14;;;;;;;6.10;4.50;;;1.20;99.90;;;;;;5075488;28;20203;-71
2022/01/24 04:30:41;;;;;;;6.82;6.13;;;1.20;99.90;;;;;;5075582;28;20203;-71
2022/01/24 04:33:07;;;;;;;7.88;5.55;;;1.10;99.90;;;;;;5076439;28;20211;-71
2022/01/24 04:35:34;;;;;;;6.45;5.50;;;1.20;99.90;;;;;;5075482;28;20204;-71
2022/01/24 04:38:01;;;;;;;7.28;6.25;;;1.10;99.90;;;;;;5074499;28;20200;-71
2022/01/24 04:40:28;;;;;;;7.30;6.13;;;1.10;99.90;;;;;;5076301;28;20238;-71
2022/01/24 04:43:04;;;;;;;11.63;6.30;;;1.10;99.90;;;;;;5077012;28;20224;-71
2022/01/24 04:45:51;;;;;;;7.97;6.55;;;1.20;99.90;;;;;;5077180;28;20639;-72
2022/01/24 04:51:13;;;;;;;6.65;5.53;;;1.20;99.90;;;;;;5076817;28;20674;-71
2022/01/24 04:56:05;;;;;;;7.50;6.00;;;1.10;99.90;;;;;;5076699;28;20560;-71
2022/01/24 04:58:32;;;;;;;7.38;5.90;;;1.10;99.90;;;;;;5076621;28;20203;-71
2022/01/24 05:00:58;;;;;;;9.27;6.95;;;1.00;99.90;;;;;;5075912;28;20200;-71
2022/01/24 05:03:24;;;;;;;8.25;6.40;;;1.00;99.90;;;;;;5076524;28;20235;-71
2022/01/24 05:05:52;;;;;;;8.10;5.97;;;1.00;99.90;;;;;;5076550;28;20192;-71
2022/01/24 05:08:18;;;;;;;8.93;6.60;;;1.00;99.90;;;;;;5076123;28;20192;-71
2022/01/24 05:10:58;;;;;;;8.40;7.03;;;1.00;99.90;;;;;;5076883;28;20192;-71
2022/01/24 05:24:23;;;;;;;12.50;7.05;;;0.80;99.90;;;;;;5074545;28;20184;-71
2022/01/24 05:26:50;;;;;;;7.70;6.88;;;0.90;99.90;;;;;;5074287;28;20218;-72
2022/01/24 05:29:16;;;;;;;10.15;7.03;;;0.80;99.90;;;;;;5073796;28;20192;-72
2022/01/24 05:31:42;;;;;;;8.70;7.80;;;0.80;99.90;;;;;;5073879;28;20202;-72
2022/01/24 05:34:08;;;;;;;8.52;7.45;;;0.80;99.90;;;;;;5074861;28;20199;-71
2022/01/24 05:36:35;;;;;;;8.68;6.95;;;0.90;99.90;;;;;;5074270;28;20659;-72
2022/01/24 05:39:01;;;;;;;9.65;6.85;;;0.80;99.90;;;;;;5074310;28;20207;-72
2022/01/24 05:41:28;;;;;;;10.90;7.80;;;0.80;99.90;;;;;;5074528;28;20532;-72
2022/01/24 05:43:54;;;;;;;9.05;7.35;;;0.80;99.90;;;;;;5074901;28;20200;-71
2022/01/24 05:46:21;;;;;;;10.05;6.90;;;0.90;99.90;;;;;;5074153;28;20233;-71
2022/01/24 05:48:47;;;;;;;11.63;7.45;;;0.90;99.90;;;;;;5074259;28;20203;-72
2022/01/24 05:51:14;;;;;;;10.63;8.32;;;0.90;99.90;;;;;;5074913;28;20268;-71
2022/01/24 05:53:40;;;;;;;7.88;6.90;;;0.80;99.90;;;;;;5034171;28;20661;-72
2022/01/24 05:56:07;;;;;;;10.95;7.80;;;0.80;99.90;;;;;;5035173;28;20205;-71
2022/01/24 05:58:33;;;;;;;8.70;7.80;;;0.90;99.90;;;;;;5033837;28;20201;-72
2022/01/24 06:00:59;;;;;;;9.80;8.02;;;0.90;99.90;;;;;;5034426;28;20201;-72
2022/01/24 06:03:27;;;;;;;11.00;7.40;;;0.90;99.90;;;;;;5033079;28;20251;-72
2022/01/24 06:05:53;;;;;;;9.60;7.10;;;1.00;99.90;;;;;;5034623;28;20237;-72
2022/01/24 06:08:20;;;;;;;12.40;8.02;;;0.90;99.90;;;;;;5034060;28;20549;-71
2022/01/24 06:10:47;;;;;;;7.78;6.97;;;0.90;99.90;;;;;;5034999;28;20197;-71
2022/01/24 06:13:15;;;;;;;10.98;6.93;;;0.90;99.90;;;;;;5035098;28;20262;-72
2022/01/24 06:15:43;;;;;;;8.57;7.75;;;0.90;99.90;;;;;;5034591;28;20202;-71
2022/01/24 06:18:09;;;;;;;13.43;7.43;;;0.90;99.90;;;;;;5035093;28;20227;-71
2022/01/24 06:20:36;;;;;;;15.50;9.35;;;0.90;99.90;;;;;;5033204;28;20247;-72
2022/01/24 06:23:02;;;;;;;8.23;7.30;;;0.90;99.90;;;;;;5034216;28;20236;-71
2022/01/24 06:25:29;;;;;;;10.73;8.43;;;0.90;99.90;;;;;;5034400;28;20247;-75
2022/01/24 06:27:56;;;;;;;12.23;8.95;;;0.90;99.90;;;;;;5034616;28;20249;-72
2022/01/24 06:30:23;;;;;;;11.10;8.18;;;0.90;99.90;;;;;;5034907;28;20209;-75
2022/01/24 06:32:49;;;;;;;8.75;7.30;;;1.00;99.90;;;;;;5034486;28;20216;-72
2022/01/24 06:35:16;;;;;;;10.85;8.55;;;0.90;99.90;;;;;;5035279;28;20573;-73
2022/01/24 06:37:42;;;;;;;13.43;8.80;;;0.90;99.90;;;;;;5034774;28;20220;-72
2022/01/24 06:40:10;;;;;;;9.35;8.25;;;0.90;99.90;;;;;;5036505;28;20213;-71
2022/01/24 06:42:38;;;;;;;10.30;8.13;;;0.90;99.90;;;;;;5040837;28;20224;-71
2022/01/24 06:45:05;;;;;;;12.23;8.02;;;0.80;99.90;;;;;;5040774;28;20281;-72
2022/01/24 06:47:36;;;;;;;12.15;8.93;;;0.90;99.90;;;;;;5040487;28;20205;-72
2022/01/24 06:50:04;;;;;;;11.57;8.75;;;0.90;99.90;;;;;;5039064;28;20198;-73
2022/01/24 06:52:31;;;;;;;15.95;8.60;;;0.90;99.90;;;;;;5059179;28;20262;-72
2022/01/24 06:54:57;;;;;;;8.63;7.70;;;0.90;99.90;;;;;;5079433;28;20339;-74
2022/01/24 06:57:24;;;;;;;12.55;8.48;;;0.90;99.90;;;;;;5080428;28;20203;-71
2022/01/24 06:59:50;;;;;;;12.45;8.63;;;0.90;99.90;;;;;;5080871;28;20207;-71
2022/01/24 07:02:17;;;;;;;11.13;8.82;;;0.90;99.90;;;;;;5078589;28;20222;-71
2022/01/24 07:04:44;;;;;;;11.85;8.90;;;0.90;99.90;;;;;;5078497;28;20199;-72
2022/01/24 07:07:12;;;;;;;10.55;8.82;;;0.80;99.90;;;;;;5080058;28;20232;-71
2022/01/24 07:09:40;;;;;;;11.40;9.45;;;0.80;99.90;;;;;;5079116;28;20196;-72
2022/01/24 07:12:08;;;;;;;15.15;9.93;;;0.70;99.90;;;;;;5079220;28;20195;-72
2022/01/24 07:14:35;;;;;;;16.02;11.23;;;0.70;99.90;;;;;;5077913;28;20257;-72
2022/01/24 07:17:34;;;;;;;14.90;13.23;;;0.70;99.90;;;;;;5078417;28;20597;-71
2022/01/24 07:20:00;;;;;;;13.05;11.55;;;0.70;99.90;;;;;;5078663;28;20200;-71
2022/01/24 07:22:27;;;;;;;14.40;10.13;;;0.70;99.90;;;;;;5078790;28;20220;-71
2022/01/24 07:24:53;;;;;;;17.15;9.98;;;0.70;99.90;;;;;;5060369;28;20203;-71
2022/01/24 07:27:20;;;;;;;17.60;10.10;;;0.70;99.90;;;;;;5077177;28;20204;-73
2022/01/24 07:29:46;;;;;;;15.23;11.00;;;0.70;99.90;;;;;;5076804;28;20203;-72
2022/01/24 07:32:13;;;;;;;16.60;11.30;;;0.70;99.90;;;;;;5076739;28;20227;-71
2022/01/24 07:34:39;;;;;;;15.27;10.23;;;0.70;99.90;;;;;;5076608;28;20674;-72
2022/01/24 07:37:06;;;;;;;15.45;10.23;;;0.70;99.90;;;;;;5077251;28;20282;-72
2022/01/24 07:39:32;;;;;;;14.38;10.40;;;0.70;99.90;;;;;;5078483;28;20234;-71
2022/01/24 07:42:04;;;;;;;9.95;8.70;;;0.70;99.90;;;;;;5078364;28;20216;-71
2022/01/24 07:44:30;;;;;;;13.98;10.48;;;0.80;99.90;;;;;;5078232;28;20184;-71
2022/01/24 07:46:57;;;;;;;13.05;10.43;;;0.90;99.90;;;;;;5078147;28;20199;-71
2022/01/24 07:49:23;;;;;;;13.65;10.57;;;0.90;99.90;;;;;;5076560;28;20200;-71
2022/01/24 07:51:49;;;;;;;14.77;10.82;;;0.90;99.90;;;;;;5075161;28;20593;-71
2022/01/24 07:54:16;;;;;;;15.68;10.57;;;1.00;99.90;;;;;;5078359;28;20204;-71
2022/01/24 07:56:42;;;;;;;16.38;11.70;;;1.00;99.90;;;;;;5076160;28;20204;-71
2022/01/24 07:59:09;;;;;;;13.93;9.57;;;1.10;99.90;;;;;;5075214;28;20261;-72
2022/01/24 08:01:35;;;;;;;12.43;9.65;;;1.20;99.90;;;;;;5074567;28;20207;-71
2022/01/24 08:04:02;;;;;;;15.50;9.82;;;1.20;99.90;;;;;;5076236;28;20777;-72
2022/01/24 08:06:29;;;;;;;16.80;12.10;;;1.30;99.90;;;;;;5078634;28;20274;-71
2022/01/24 08:08:56;;;;;;;16.38;10.75;;;1.30;99.90;;;;;;5076456;28;20200;-71
2022/01/24 08:11:22;;;;;;;10.40;9.30;;;1.30;99.90;;;;;;5076648;28;20547;-71
2022/01/24 08:13:49;;;;;;;14.20;10.65;;;1.40;99.90;;;;;;5076406;28;20196;-71
2022/01/24 08:16:16;;;;;;;11.15;9.93;;;1.50;99.90;;;;;;5075800;28;20204;-72
2022/01/24 08:18:42;;;;;;;10.60;9.27;;;1.60;99.90;;;;;;5075735;28;20621;-72
2022/01/24 08:21:09;;;;;;;13.90;10.05;;;1.60;99.90;;;;;;5076340;28;20211;-72
2022/01/24 08:23:35;;;;;;;15.60;11.10;;;1.70;99.90;;;;;;5075775;28;20211;-71
2022/01/24 08:26:02;;;;;;;16.10;10.50;;;1.70;99.90;;;;;;5076118;28;20204;-72
2022/01/24 08:28:29;;;;;;;11.80;10.27;;;1.80;99.90;;;;;;5076487;28;20588;-72
2022/01/24 08:30:56;;;;;;;14.07;10.73;;;1.80;99.90;;;;;;5075236;28;20214;-72
2022/01/24 08:33:22;;;;;;;13.10;10.75;;;1.90;99.90;;;;;;5076756;28;20204;-72
2022/01/24 08:35:51;;;;;;;12.93;9.88;;;2.00;99.90;;;;;;5077652;28;20567;-72
2022/01/24 08:38:18;;;;;;;12.90;10.35;;;2.00;99.90;;;;;;5077306;28;20625;-72
2022/01/24 08:40:47;;;;;;;12.70;9.52;;;2.10;99.90;;;;;;5077613;28;20257;-72
2022/01/24 08:43:22;;;;;;;10.75;9.68;;;2.30;99.90;;;;;;5077393;28;20280;-72
2022/01/24 08:45:57;;;;;;;11.80;10.18;;;2.30;99.90;;;;;;5077025;28;20659;-72
2022/01/24 08:48:24;;;;;;;12.85;10.38;;;2.40;99.90;;;;;;5077269;28;20191;-72
2022/01/24 08:50:53;;;;;;;15.93;10.15;;;2.50;99.90;;;;;;5076886;28;20200;-71
2022/01/24 08:53:20;;;;;;;23.77;11.20;;;2.40;99.90;;;;;;5074908;28;20223;-71
2022/01/24 08:55:46;;;;;;;14.95;10.40;;;2.40;99.90;;;;;;5075340;28;20200;-71
2022/01/24 08:58:14;;;;;;;13.13;9.95;;;2.50;99.90;;;;;;5075624;28;20656;-71
2022/01/24 09:00:45;;;;;;;16.83;10.35;;;2.60;99.90;;;;;;5074758;28;20216;-71
2022/01/24 09:03:14;;;;;;;17.70;10.75;;;2.70;99.90;;;;;;5075020;28;20273;-71
2022/01/24 09:05:41;;;;;;;12.70;11.10;;;2.80;99.90;;;;;;5075764;28;20199;-72
2022/01/24 09:08:09;;;;;;;23.55;11.05;;;2.80;99.90;;;;;;5074147;28;20196;-72
2022/01/24 09:10:39;;;;;;;14.00;10.80;;;2.90;99.90;;;;;;5075493;28;20204;-71
2022/01/24 09:13:06;;;;;;;15.13;10.63;;;3.00;99.90;;;;;;5075733;28;20207;-72
2022/01/24 09:15:33;;;;;;;15.73;11.48;;;3.00;99.90;;;;;;5075139;28;20203;-72
2022/01/24 09:18:01;;;;;;;13.02;10.13;;;3.10;99.90;;;;;;5075275;28;20670;-71
2022/01/24 09:20:28;;;;;;;11.05;9.75;;;3.10;99.90;;;;;;5074665;28;20207;-72
2022/01/24 09:22:54;;;;;;;14.90;10.77;;;3.20;99.90;;;;;;5074424;28;20224;-71
2022/01/24 09:25:22;;;;;;;14.40;10.43;;;3.40;99.90;;;;;;5074433;28;20613;-71
2022/01/24 09:27:49;;;;;;;11.30;8.75;;;3.50;99.90;;;;;;5073987;28;20204;-72
2022/01/24 09:30:20;;;;;;;11.40;9.93;;;3.60;99.90;;;;;;5073985;28;20656;-72
2022/01/24 09:32:47;;;;;;;12.73;9.23;;;3.70;99.90;;;;;;5073857;28;20207;-72
2022/01/24 09:35:15;;;;;;;11.82;8.40;;;3.80;99.90;;;;;;5073957;28;20215;-72
2022/01/24 09:37:42;;;;;;;8.80;7.38;;;3.80;99.90;;;;;;5073983;28;20663;-72
2022/01/24 09:40:12;;;;;;;16.27;8.65;;;3.90;99.90;;;;;;5072705;28;20241;-72
2022/01/24 09:42:39;;;;;;;14.82;9.18;;;4.00;99.90;;;;;;5074054;28;20223;-72
2022/01/24 09:45:07;;;;;;;12.25;8.95;;;4.00;99.90;;;;;;5073901;28;20210;-72
2022/01/24 09:47:34;;;;;;;10.68;8.80;;;4.10;99.90;;;;;;5073773;28;20200;-71
2022/01/24 09:50:00;;;;;;;19.17;9.23;;;4.10;99.90;;;;;;5074725;28;20261;-72
2022/01/24 09:52:27;;;;;;;10.43;7.53;;;4.20;99.90;;;;;;5073615;28;20236;-71
2022/01/24 09:54:54;;;;;;;8.57;7.40;;;4.20;99.90;;;;;;5074106;28;20204;-71
2022/01/24 09:57:20;;;;;;;10.95;8.52;;;4.20;99.90;;;;;;5074730;28;20620;-72
2022/01/24 09:59:47;;;;;;;15.07;7.90;;;4.30;99.90;;;;;;5073672;28;20682;-72
2022/01/24 10:02:14;;;;;;;15.63;8.48;;;4.30;99.90;;;;;;5074880;28;20203;-72
2022/01/24 10:04:40;;;;;;;8.60;7.80;;;4.40;99.90;;;;;;5076157;28;20199;-72
2022/01/24 10:07:11;;;;;;;9.45;8.05;;;4.50;99.90;;;;;;5075261;28;20219;-73
2022/01/24 10:09:39;;;;;;;7.70;7.00;;;4.60;99.90;;;;;;5075738;28;20185;-72
2022/01/24 10:12:16;;;;;;;9.30;8.32;;;4.70;99.90;;;;;;5075411;28;20203;-71
2022/01/24 10:17:35;;;;;;;9.43;8.43;;;4.70;99.90;;;;;;5075594;28;20180;-72
2022/01/24 10:20:25;;;;;;;9.43;7.53;;;4.70;99.90;;;;;;5074177;28;20196;-71
2022/01/24 10:23:13;;;;;;;12.88;8.82;;;4.70;99.90;;;;;;5072804;28;20227;-71
2022/01/24 10:25:45;;;;;;;8.65;7.40;;;4.80;99.90;;;;;;5073878;28;20278;-71
2022/01/24 10:28:25;;;;;;;7.40;6.80;;;4.80;99.90;;;;;;5073831;28;20279;-71
2022/01/24 10:31:03;;;;;;;7.68;6.75;;;4.80;99.90;;;;;;5073636;28;20533;-71
2022/01/24 10:33:29;;;;;;;8.73;6.93;;;4.90;99.90;;;;;;5073387;28;20537;-71
2022/01/24 10:35:56;;;;;;;9.13;7.32;;;4.90;99.90;;;;;;5073749;28;20206;-71
2022/01/24 10:41:11;;;;;;;31.73;10.75;;;5.10;99.90;;;;;;5074119;28;20210;-71
2022/01/24 10:43:40;;;;;;;8.65;7.15;;;5.10;99.90;;;;;;5074289;28;20222;-71
2022/01/24 10:46:09;;;;;;;12.38;7.95;;;5.20;99.90;;;;;;5074116;28;20192;-71
2022/01/24 10:48:41;;;;;;;11.65;7.72;;;5.30;99.90;;;;;;5073591;28;20200;-72
2022/01/24 10:51:20;;;;;;;8.45;7.53;;;5.30;99.90;;;;;;5075253;28;20189;-72
2022/01/24 10:53:50;;;;;;;10.98;7.07;;;5.20;99.90;;;;;;5073714;28;20188;-71
2022/01/24 10:56:41;;;;;;;8.85;7.97;;;5.20;99.90;;;;;;5073936;28;20204;-71
2022/01/24 10:59:15;;;;;;;7.15;6.40;;;5.20;99.90;;;;;;5072945;28;20184;-71
2022/01/24 11:01:44;;;;;;;12.98;7.03;;;5.30;99.90;;;;;;5072415;28;20185;-72
2022/01/24 11:04:16;;;;;;;8.55;7.65;;;5.60;99.90;;;;;;5073482;28;20220;-72
2022/01/24 11:06:51;;;;;;;9.02;7.18;;;5.90;99.90;;;;;;5073171;28;20280;-72
2022/01/24 11:09:23;;;;;;;10.70;7.75;;;6.00;99.90;;;;;;5074200;28;20200;-71
2022/01/24 11:12:11;;;;;;;6.22;5.63;;;6.10;99.90;;;;;;5073824;28;20188;-71
2022/01/24 11:14:45;;;;;;;14.73;7.22;;;6.00;99.90;;;;;;5072909;28;20608;-72
2022/01/24 11:17:15;;;;;;;8.70;7.22;;;6.30;99.90;;;;;;5073214;28;20200;-71
2022/01/24 11:19:56;;;;;;;7.30;6.60;;;6.40;99.90;;;;;;5074462;28;20262;-71
2022/01/24 11:22:27;;;;;;;6.30;5.70;;;6.50;99.90;;;;;;5074813;28;20193;-71
2022/01/24 11:24:59;;;;;;;5.70;5.22;;;6.40;99.90;;;;;;5074703;28;20210;-72
2022/01/24 11:27:27;;;;;;;7.65;6.55;;;6.90;99.90;;;;;;5077450;28;20659;-71
2022/01/24 11:29:59;;;;;;;7.60;7.00;;;7.00;99.90;;;;;;5078480;28;20199;-71
2022/01/24 11:32:58;;;;;;;7.95;7.15;;;6.60;99.90;;;;;;5076874;28;20261;-71
2022/01/24 11:35:29;;;;;;;6.90;6.22;;;6.60;99.90;;;;;;5074544;28;20204;-72
2022/01/24 11:37:56;;;;;;;7.22;6.55;;;6.80;99.90;;;;;;5076584;28;20257;-71
2022/01/24 11:40:25;;;;;;;8.15;6.43;;;7.50;99.90;;;;;;5077525;28;20212;-72
2022/01/24 11:42:52;;;;;;;9.00;7.05;;;7.40;99.90;;;;;;5077912;28;20233;-72
2022/01/24 11:45:55;;;;;;;8.60;6.47;;;7.50;99.90;;;;;;5077919;28;20196;-73
2022/01/24 11:48:24;;;;;;;7.97;7.18;;;7.80;99.90;;;;;;5075378;28;20602;-72
2022/01/24 11:51:10;;;;;;;7.65;6.95;;;8.20;99.90;;;;;;5076612;28;20238;-72
2022/01/24 11:53:45;;;;;;;7.88;6.85;;;8.10;99.90;;;;;;5076142;28;20236;-72
2022/01/24 11:56:32;;;;;;;8.50;7.80;;;8.20;99.90;;;;;;5076846;28;20184;-72
2022/01/24 11:59:21;;;;;;;12.23;8.10;;;8.40;99.90;;;;;;5077036;28;20576;-72
2022/01/24 12:01:54;;;;;;;14.18;7.75;;;7.80;99.90;;;;;;5076385;28;20200;-72
2022/01/24 12:04:56;;;;;;;21.83;8.77;;;8.00;99.90;;;;;;5077043;28;20284;-73
2022/01/24 12:07:30;;;;;;;7.95;7.15;;;8.40;99.90;;;;;;5077659;28;20224;-72
2022/01/24 12:10:26;;;;;;;8.60;7.75;;;8.80;99.90;;;;;;5078276;28;20195;-71
2022/01/24 12:13:02;;;;;;;10.60;7.75;;;8.70;99.90;;;;;;5075254;28;20203;-71
2022/01/24 12:15:38;;;;;;;13.25;7.03;;;8.90;99.90;;;;;;5075136;28;20204;-71
2022/01/24 12:18:11;;;;;;;13.57;6.50;;;8.80;99.90;;;;;;5076330;28;20248;-71
2022/01/24 12:20:38;;;;;;;8.77;7.97;;;8.90;99.90;;;;;;5077541;28;20212;-71
2022/01/24 12:23:16;;;;;;;10.35;7.85;;;8.70;99.90;;;;;;5076055;28;20227;-71
2022/01/24 12:25:56;;;;;;;7.85;7.05;;;8.80;99.90;;;;;;5076865;28;20210;-71
2022/01/24 12:28:25;;;;;;;10.50;7.50;;;9.20;99.90;;;;;;5076088;28;20211;-72
2022/01/24 12:31:07;;;;;;;7.82;7.13;;;9.20;99.90;;;;;;5078276;28;20200;-72
2022/01/24 12:33:36;;;;;;;7.20;6.50;;;9.20;99.90;;;;;;5077906;28;20180;-71
2022/01/24 12:36:12;;;;;;;7.82;6.88;;;8.90;99.90;;;;;;5078194;28;20207;-71
2022/01/24 12:38:47;;;;;;;8.35;7.55;;;8.80;99.90;;;;;;5076776;28;20196;-71
2022/01/24 12:41:35;;;;;;;8.32;6.82;;;8.80;99.90;;;;;;5075665;28;20211;-71
2022/01/24 12:46:33;;;;;;;15.85;8.55;;;9.40;99.90;;;;;;5076459;28;20670;-71
2022/01/24 12:49:03;;;;;;;7.63;6.93;;;9.40;99.90;;;;;;5076628;28;20199;-71
2022/01/24 12:51:33;;;;;;;11.23;7.43;;;8.90;99.90;;;;;;5075757;28;20198;-71
2022/01/24 12:54:04;;;;;;;7.35;6.65;;;9.30;99.90;;;;;;5075827;28;20188;-71
2022/01/24 12:56:33;;;;;;;7.85;7.25;;;9.50;99.90;;;;;;5075612;28;20211;-72
2022/01/24 12:58:59;;;;;;;7.28;6.78;;;10.00;99.90;;;;;;5076430;28;20210;-71
2022/01/24 13:01:31;;;;;;;11.68;6.95;;;9.80;99.90;;;;;;5074796;28;20730;-72
2022/01/24 13:04:08;;;;;;;10.65;8.05;;;9.90;99.90;;;;;;5074451;28;20587;-72
2022/01/24 13:06:36;;;;;;;7.05;6.55;;;9.60;99.90;;;;;;5074561;28;20218;-71
2022/01/24 13:09:19;;;;;;;7.25;6.65;;;9.10;99.90;;;;;;5074276;28;20536;-71
2022/01/24 13:11:45;;;;;;;10.30;7.55;;;9.10;99.90;;;;;;5076265;28;20187;-72
2022/01/24 13:14:17;;;;;;;7.85;7.15;;;9.90;99.90;;;;;;5074909;28;20204;-71
2022/01/24 13:25:13;;;;;;;8.57;6.50;;;11.00;99.90;;;;;;5074252;28;20641;-72
2022/01/24 13:27:46;;;;;;;7.73;7.03;;;10.30;99.90;;;;;;5076315;28;20606;-72
2022/01/24 13:30:23;;;;;;;8.70;6.70;;;10.20;99.90;;;;;;5075936;28;20582;-72
2022/01/24 13:32:54;;;;;;;7.13;6.50;;;10.20;99.90;;;;;;5076346;28;20691;-72
2022/01/24 13:35:37;;;;;;;7.32;6.63;;;10.50;99.90;;;;;;5075896;28;20617;-71
2022/01/24 13:38:21;;;;;;;8.13;6.95;;;9.80;99.90;;;;;;5072904;28;20207;-72
2022/01/24 13:41:04;;;;;;;11.77;7.10;;;10.30;99.90;;;;;;5074476;28;20180;-71
2022/01/24 13:43:38;;;;;;;8.10;7.40;;;10.30;99.90;;;;;;5074551;28;20740;-72
2022/01/24 13:46:08;;;;;;;7.47;6.73;;;10.30;99.90;;;;;;5074502;28;20576;-72
2022/01/24 13:48:44;;;;;;;7.53;6.90;;;9.90;99.90;;;;;;5073718;28;20584;-72
2022/01/24 13:51:13;;;;;;;13.53;8.30;;;9.30;99.90;;;;;;5073698;28;21178;-71
2022/01/24 13:53:53;;;;;;;7.63;6.40;;;8.60;99.90;;;;;;5073485;28;20752;-71
2022/01/24 13:56:44;;;;;;;8.18;7.10;;;8.20;99.90;;;;;;5077070;28;20188;-71
2022/01/24 13:59:16;;;;;;;8.75;6.60;;;7.80;99.90;;;;;;5074729;28;20208;-71
2022/01/24 14:02:02;;;;;;;7.32;6.57;;;7.80;99.90;;;;;;5073924;28;20220;-71
2022/01/24 14:04:32;;;;;;;10.68;7.72;;;8.00;99.90;;;;;;5072707;28;20606;-72
2022/01/24 14:07:03;;;;;;;6.50;5.88;;;7.80;99.90;;;;;;5073906;28;20675;-72
2022/01/24 14:09:33;;;;;;;10.88;6.70;;;8.20;99.90;;;;;;5073532;28;20184;-72
2022/01/24 14:12:00;;;;;;;8.98;7.15;;;8.70;99.90;;;;;;5073438;28;20196;-71
2022/01/24 14:14:37;;;;;;;12.50;8.90;;;9.00;99.90;;;;;;5073086;28;20208;-71
2022/01/24 14:17:21;;;;;;;9.48;5.75;;;9.40;99.90;;;;;;5072224;28;20207;-72
2022/01/24 14:20:08;;;;;;;5.20;4.80;;;9.90;99.90;;;;;;5073681;28;20211;-72
2022/01/24 14:22:57;;;;;;;6.70;6.10;;;10.40;99.90;;;;;;5073477;28;20203;-73
2022/01/24 14:25:31;;;;;;;7.33;6.07;;;10.40;99.90;;;;;;5074047;28;20188;-72
2022/01/24 14:28:08;;;;;;;6.90;6.40;;;11.00;99.90;;;;;;5075137;28;20561;-72
2022/01/24 14:30:46;;;;;;;7.53;6.80;;;10.90;99.90;;;;;;5076010;28;20581;-73
2022/01/24 14:33:28;;;;;;;6.77;6.17;;;11.00;99.90;;;;;;5075150;28;20982;-73
2022/01/24 14:36:02;;;;;;;11.10;6.50;;;11.70;99.90;;;;;;5075021;28;20567;-73
2022/01/24 14:39:00;;;;;;;7.27;6.63;;;11.40;99.90;;;;;;5074172;28;20600;-72
2022/01/24 14:41:28;;;;;;;9.47;8.37;;;11.00;99.90;;;;;;5074100;28;20622;-72
2022/01/24 14:46:42;;;;;;;11.50;7.53;;;11.30;99.90;;;;;;5074779;28;20586;-72
2022/01/24 14:49:14;;;;;;;9.03;7.03;;;11.50;99.90;;;;;;5074202;28;20598;-72
2022/01/24 14:51:43;;;;;;;9.00;8.03;;;11.60;99.90;;;;;;5075154;28;20646;-73